Time;durP1;ratioP1;P1;durP2;ratioP2;P2;SDS_P1;SDS_P2;PMS_P1;PMS_P2;Temp;Humidity;BMP_temperature;BMP_pressure;BME280_temperature;BME280_humidity;BME280_pressure;Samples;Min_cycle;Max_cycle;Signal;HPM_P1;HPM_P2
2023/12/28 00:02:03;;;;;;;1.73;1.47;;;;;;;;;;6282195;22;20376;-87
2023/12/28 00:04:30;;;;;;;2.30;1.60;;;;;;;;;;6283048;22;20553;-88
2023/12/28 00:06:56;;;;;;;3.00;1.93;;;;;;;;;;6285170;22;20856;-86
2023/12/28 00:09:22;;;;;;;1.80;1.50;;;;;;;;;;6281593;22;20407;-88
2023/12/28 00:11:48;;;;;;;1.60;1.50;;;;;;;;;;6282183;22;20430;-87
2023/12/28 00:14:14;;;;;;;2.30;1.30;;;;;;;;;;6281568;22;20357;-89
2023/12/28 00:16:40;;;;;;;2.27;1.77;;;;;;;;;;6283015;22;20392;-88
2023/12/28 00:19:06;;;;;;;1.33;1.20;;;;;;;;;;6281656;22;20410;-84
2023/12/28 00:21:32;;;;;;;3.47;1.73;;;;;;;;;;6283403;22;20444;-87
2023/12/28 00:23:58;;;;;;;1.70;1.40;;;;;;;;;;6282491;22;20412;-88
2023/12/28 00:26:24;;;;;;;1.13;1.03;;;;;;;;;;6308015;22;20384;-87
2023/12/28 00:28:51;;;;;;;2.30;1.53;;;;;;;;;;6307473;22;20364;-88
2023/12/28 00:31:17;;;;;;;1.10;1.00;;;;;;;;;;6307382;22;20361;-87
2023/12/28 00:33:43;;;;;;;1.73;1.50;;;;;;;;;;6281557;22;20379;-88
2023/12/28 00:36:09;;;;;;;1.73;1.63;;;;;;;;;;6282061;22;20422;-89
2023/12/28 00:38:35;;;;;;;2.03;1.83;;;;;;;;;;6282975;22;20369;-88
2023/12/28 00:41:01;;;;;;;1.40;1.30;;;;;;;;;;6283190;22;20856;-87
2023/12/28 00:43:27;;;;;;;1.50;1.40;;;;;;;;;;6282767;22;20425;-87
2023/12/28 00:45:53;;;;;;;2.10;1.90;;;;;;;;;;6283212;22;20424;-87
2023/12/28 00:48:19;;;;;;;4.20;1.67;;;;;;;;;;6308740;22;20441;-88
2023/12/28 00:50:45;;;;;;;1.97;1.43;;;;;;;;;;6283333;22;20372;-88
2023/12/28 00:53:11;;;;;;;2.20;1.50;;;;;;;;;;6283803;22;20371;-88
2023/12/28 00:55:37;;;;;;;2.00;1.30;;;;;;;;;;6285252;22;20377;-90
2023/12/28 00:58:03;;;;;;;1.67;1.23;;;;;;;;;;6284672;22;20455;-88
2023/12/28 01:00:29;;;;;;;2.80;2.60;;;;;;;;;;6310741;22;20373;-87
2023/12/28 01:02:54;;;;;;;2.00;1.87;;;;;;;;;;6310248;22;20407;-88
2023/12/28 01:05:21;;;;;;;1.83;1.47;;;;;;;;;;6284266;22;20415;-89
2023/12/28 01:07:47;;;;;;;1.30;1.07;;;;;;;;;;6284713;22;20381;-88
2023/12/28 01:10:15;;;;;;;2.93;2.00;;;;;;;;;;6285116;22;20372;-88
2023/12/28 01:12:41;;;;;;;2.67;1.57;;;;;;;;;;6286236;22;20458;-87
2023/12/28 01:15:07;;;;;;;1.70;1.40;;;;;;;;;;6284468;22;20384;-88
2023/12/28 01:17:33;;;;;;;3.60;1.63;;;;;;;;;;6285916;22;20376;-87
2023/12/28 01:20:00;;;;;;;2.27;1.90;;;;;;;;;;6284405;22;20380;-87
2023/12/28 01:22:25;;;;;;;6.20;1.60;;;;;;;;;;6285362;22;20380;-86
2023/12/28 01:24:51;;;;;;;3.13;1.10;;;;;;;;;;6284558;22;20412;-87
2023/12/28 01:27:17;;;;;;;2.20;1.30;;;;;;;;;;6285010;22;20380;-87
2023/12/28 01:29:43;;;;;;;1.47;1.33;;;;;;;;;;6311222;22;20414;-87
2023/12/28 01:32:09;;;;;;;6.07;1.60;;;;;;;;;;6310076;22;20376;-88
2023/12/28 01:34:35;;;;;;;2.23;1.70;;;;;;;;;;6286602;22;20969;-86
2023/12/28 01:37:01;;;;;;;2.50;1.30;;;;;;;;;;6308379;22;20364;-87
2023/12/28 01:39:27;;;;;;;1.80;1.50;;;;;;;;;;6283931;22;20373;-87
2023/12/28 01:41:55;;;;;;;5.87;1.50;;;;;;;;;;6283337;22;20372;-88
2023/12/28 01:44:21;;;;;;;3.93;1.63;;;;;;;;;;6311754;22;20414;-89
2023/12/28 01:46:47;;;;;;;3.57;2.10;;;;;;;;;;6283102;22;20368;-87
2023/12/28 01:49:13;;;;;;;3.93;2.20;;;;;;;;;;6283895;22;20369;-87
2023/12/28 01:51:39;;;;;;;2.50;1.47;;;;;;;;;;6282832;22;20451;-87
2023/12/28 01:54:05;;;;;;;1.90;1.70;;;;;;;;;;6283100;22;20368;-87
2023/12/28 01:56:31;;;;;;;2.33;1.20;;;;;;;;;;6283110;22;20372;-87
2023/12/28 01:58:59;;;;;;;4.00;1.83;;;;;;;;;;6283885;22;20377;-88
2023/12/28 02:01:26;;;;;;;2.70;2.33;;;;;;;;;;6284817;22;20514;-85
2023/12/28 02:03:52;;;;;;;3.00;2.07;;;;;;;;;;6284309;22;20907;-86
2023/12/28 02:06:19;;;;;;;3.43;1.40;;;;;;;;;;6283802;22;20456;-87
2023/12/28 02:08:45;;;;;;;2.27;2.07;;;;;;;;;;6284448;22;20855;-87
2023/12/28 02:11:11;;;;;;;2.00;1.80;;;;;;;;;;6285769;22;20390;-87
2023/12/28 02:13:37;;;;;;;2.20;2.00;;;;;;;;;;6282360;22;20431;-87
2023/12/28 02:16:04;;;;;;;3.50;2.27;;;;;;;;;;6283894;22;20384;-85
2023/12/28 02:18:31;;;;;;;2.00;1.70;;;;;;;;;;6282803;22;20456;-87
2023/12/28 02:20:57;;;;;;;2.73;2.03;;;;;;;;;;6283351;22;20434;-87
2023/12/28 02:23:23;;;;;;;2.30;1.80;;;;;;;;;;6310197;22;20372;-87
2023/12/28 02:25:49;;;;;;;2.03;1.17;;;;;;;;;;6282729;22;20428;-87
2023/12/28 02:28:15;;;;;;;2.60;2.03;;;;;;;;;;6282883;22;20368;-90
2023/12/28 02:30:41;;;;;;;2.87;1.90;;;;;;;;;;6306936;22;20364;-88
2023/12/28 02:33:10;;;;;;;2.50;1.47;;;;;;;;;;6284071;22;20730;-87
2023/12/28 02:35:38;;;;;;;2.27;1.90;;;;;;;;;;6309989;22;20364;-87
2023/12/28 02:38:06;;;;;;;3.47;1.80;;;;;;;;;;6283376;22;20386;-87
2023/12/28 02:40:32;;;;;;;1.73;1.57;;;;;;;;;;6309045;22;21127;-87
2023/12/28 02:42:58;;;;;;;2.50;1.40;;;;;;;;;;6284995;22;20380;-86
2023/12/28 02:45:25;;;;;;;1.30;1.20;;;;;;;;;;6283019;22;20412;-88
2023/12/28 02:47:51;;;;;;;1.27;1.17;;;;;;;;;;6285204;22;20376;-86
2023/12/28 02:50:17;;;;;;;2.50;1.80;;;;;;;;;;6281984;22;20500;-87
2023/12/28 02:52:43;;;;;;;3.33;1.80;;;;;;;;;;6282365;22;20376;-88
2023/12/28 02:55:10;;;;;;;2.23;2.00;;;;;;;;;;6282553;22;20844;-87
2023/12/28 02:57:37;;;;;;;1.33;1.23;;;;;;;;;;6281344;22;20384;-87
2023/12/28 03:00:05;;;;;;;2.27;1.80;;;;;;;;;;6283292;22;20379;-88
2023/12/28 03:02:31;;;;;;;1.47;1.20;;;;;;;;;;6282021;22;20464;-90
2023/12/28 03:04:57;;;;;;;2.40;1.30;;;;;;;;;;6282976;22;20415;-89
2023/12/28 03:07:23;;;;;;;4.13;1.57;;;;;;;;;;6281968;22;20380;-88
2023/12/28 03:09:49;;;;;;;1.60;1.40;;;;;;;;;;6283595;22;20395;-89
2023/12/28 03:12:16;;;;;;;2.80;1.40;;;;;;;;;;6282538;22;20379;-86
2023/12/28 03:14:42;;;;;;;2.10;1.27;;;;;;;;;;6309566;22;20372;-88
2023/12/28 03:17:09;;;;;;;1.30;1.20;;;;;;;;;;6281703;22;20381;-88
2023/12/28 03:19:36;;;;;;;1.73;1.37;;;;;;;;;;6284389;22;20448;-89
2023/12/28 03:22:02;;;;;;;2.37;2.17;;;;;;;;;;6305194;22;20376;-88
2023/12/28 03:24:28;;;;;;;3.83;1.93;;;;;;;;;;6307706;22;20404;-88
2023/12/28 03:26:54;;;;;;;1.77;1.10;;;;;;;;;;6280638;22;20413;-88
2023/12/28 03:29:20;;;;;;;3.13;1.63;;;;;;;;;;6281476;22;20756;-88
2023/12/28 03:31:46;;;;;;;1.60;1.50;;;;;;;;;;6281893;22;20380;-89
2023/12/28 03:34:12;;;;;;;1.53;1.07;;;;;;;;;;6283508;22;20376;-88
2023/12/28 03:36:38;;;;;;;1.47;1.37;;;;;;;;;;6307496;22;20369;-88
2023/12/28 03:39:05;;;;;;;2.43;1.53;;;;;;;;;;6284419;22;20422;-88
2023/12/28 03:41:31;;;;;;;1.70;1.60;;;;;;;;;;6284646;22;20385;-87
2023/12/28 03:43:57;;;;;;;2.53;1.80;;;;;;;;;;6282753;22;20952;-87
2023/12/28 03:46:23;;;;;;;1.10;1.00;;;;;;;;;;6281516;22;20361;-87
2023/12/28 03:48:49;;;;;;;1.80;1.20;;;;;;;;;;6282410;22;20862;-86
2023/12/28 03:51:16;;;;;;;1.97;1.70;;;;;;;;;;6283412;22;20403;-89
2023/12/28 03:53:42;;;;;;;2.27;1.53;;;;;;;;;;6281526;22;20391;-89
2023/12/28 03:56:08;;;;;;;2.20;1.60;;;;;;;;;;6283573;22;20376;-87
2023/12/28 03:58:34;;;;;;;1.60;1.50;;;;;;;;;;6283548;22;20422;-87
2023/12/28 04:01:00;;;;;;;2.00;1.37;;;;;;;;;;6282805;22;20376;-87
2023/12/28 04:03:26;;;;;;;2.00;1.50;;;;;;;;;;6283070;22;20851;-88
2023/12/28 04:05:53;;;;;;;1.53;1.27;;;;;;;;;;6282360;22;20420;-89
2023/12/28 04:08:19;;;;;;;6.53;1.77;;;;;;;;;;6282337;22;20811;-87
2023/12/28 04:10:45;;;;;;;1.80;1.70;;;;;;;;;;6283020;22;20375;-89
2023/12/28 04:13:11;;;;;;;5.27;1.27;;;;;;;;;;6308094;22;20642;-89
2023/12/28 04:15:38;;;;;;;3.50;1.63;;;;;;;;;;6307699;22;20387;-86
2023/12/28 04:18:04;;;;;;;3.07;1.50;;;;;;;;;;6281366;22;20776;-87
2023/12/28 04:20:30;;;;;;;4.33;1.87;;;;;;;;;;6281449;22;20376;-87
2023/12/28 04:22:57;;;;;;;3.83;1.60;;;;;;;;;;6282155;22;20437;-87
2023/12/28 04:25:22;;;;;;;1.40;1.27;;;;;;;;;;6307656;22;20409;-87
2023/12/28 04:27:49;;;;;;;1.53;1.43;;;;;;;;;;6284023;22;20371;-87
2023/12/28 04:30:15;;;;;;;2.03;1.50;;;;;;;;;;6281090;22;20388;-87
2023/12/28 04:32:41;;;;;;;1.50;1.37;;;;;;;;;;6282585;22;20422;-87
2023/12/28 04:35:07;;;;;;;4.60;1.57;;;;;;;;;;6282226;22;20376;-86
2023/12/28 04:37:34;;;;;;;1.97;1.70;;;;;;;;;;6282556;22;20860;-87
2023/12/28 04:40:00;;;;;;;3.00;2.23;;;;;;;;;;6282157;22;20754;-87
2023/12/28 04:42:26;;;;;;;7.60;2.80;;;;;;;;;;6282761;22;20384;-86
2023/12/28 04:44:52;;;;;;;2.17;1.97;;;;;;;;;;6281427;22;20419;-87
2023/12/28 04:47:18;;;;;;;3.20;2.20;;;;;;;;;;6282137;22;20415;-87
2023/12/28 04:49:44;;;;;;;1.87;1.63;;;;;;;;;;6280847;22;20436;-88
2023/12/28 04:52:10;;;;;;;2.30;1.90;;;;;;;;;;6307516;22;20368;-89
2023/12/28 04:54:36;;;;;;;3.60;2.07;;;;;;;;;;6280808;22;20388;-88
2023/12/28 04:57:02;;;;;;;2.57;1.87;;;;;;;;;;6282684;22;20385;-88
2023/12/28 04:59:28;;;;;;;2.00;1.80;;;;;;;;;;6280371;22;20376;-87
2023/12/28 05:01:54;;;;;;;1.80;1.70;;;;;;;;;;6308446;22;20364;-87
2023/12/28 05:04:20;;;;;;;4.03;2.77;;;;;;;;;;6281307;22;20418;-87
2023/12/28 05:06:46;;;;;;;8.77;2.90;;;;;;;;;;6281335;22;20423;-90
2023/12/28 05:09:12;;;;;;;4.83;3.80;;;;;;;;;;6278781;22;20374;-88
2023/12/28 05:11:38;;;;;;;6.13;3.97;;;;;;;;;;6282377;22;20372;-88
2023/12/28 05:14:05;;;;;;;8.07;4.97;;;;;;;;;;6279665;22;20777;-87
2023/12/28 05:16:31;;;;;;;11.77;5.73;;;;;;;;;;6282701;22;20384;-87
2023/12/28 05:18:57;;;;;;;18.17;9.70;;;;;;;;;;6280829;22;20391;-88
2023/12/28 05:21:23;;;;;;;12.13;6.83;;;;;;;;;;6281342;22;20694;-88
2023/12/28 05:23:49;;;;;;;9.03;4.57;;;;;;;;;;6280043;22;20395;-90
2023/12/28 05:26:15;;;;;;;9.10;5.20;;;;;;;;;;6279949;22;20484;-89
2023/12/28 05:28:41;;;;;;;12.20;7.03;;;;;;;;;;6280967;22;20372;-88
2023/12/28 05:31:07;;;;;;;15.37;8.30;;;;;;;;;;6281393;22;20965;-89
2023/12/28 05:33:33;;;;;;;12.47;6.10;;;;;;;;;;6282510;22;20368;-88
2023/12/28 05:35:59;;;;;;;13.10;6.43;;;;;;;;;;6306353;22;20720;-90
2023/12/28 05:38:25;;;;;;;13.20;5.97;;;;;;;;;;6281155;22;20380;-90
2023/12/28 05:40:51;;;;;;;5.50;3.67;;;;;;;;;;6280393;22;20395;-88
2023/12/28 05:43:17;;;;;;;8.00;3.73;;;;;;;;;;6283787;22;20380;-88
2023/12/28 05:45:43;;;;;;;6.20;3.73;;;;;;;;;;6282052;22;20465;-89
2023/12/28 05:48:09;;;;;;;4.80;3.67;;;;;;;;;;6282893;22;20707;-88
2023/12/28 05:50:35;;;;;;;4.27;3.07;;;;;;;;;;6309043;22;20360;-88
2023/12/28 05:53:02;;;;;;;4.90;3.03;;;;;;;;;;6309006;22;20447;-88
2023/12/28 05:55:28;;;;;;;4.07;2.70;;;;;;;;;;6283436;22;20376;-88
2023/12/28 05:57:54;;;;;;;3.97;2.43;;;;;;;;;;6310177;22;20771;-87
2023/12/28 06:00:20;;;;;;;7.73;1.67;;;;;;;;;;6283641;22;20460;-88
2023/12/28 06:02:49;;;;;;;3.90;3.60;;;;;;;;;;6285597;22;20901;-88
2023/12/28 06:05:15;;;;;;;3.17;2.30;;;;;;;;;;6285297;22;20420;-88
2023/12/28 06:07:41;;;;;;;2.80;2.30;;;;;;;;;;6284093;22;20472;-88
2023/12/28 06:10:07;;;;;;;5.00;2.67;;;;;;;;;;6284179;22;20399;-87
2023/12/28 06:12:33;;;;;;;3.40;1.83;;;;;;;;;;6308937;22;20418;-88
2023/12/28 06:14:59;;;;;;;5.20;2.20;;;;;;;;;;6283514;22;20389;-89
2023/12/28 06:17:25;;;;;;;2.47;1.87;;;;;;;;;;6284311;22;20369;-88
2023/12/28 06:19:51;;;;;;;3.23;1.70;;;;;;;;;;6284587;22;20417;-88
2023/12/28 06:22:17;;;;;;;3.30;2.10;;;;;;;;;;6308149;22;20864;-89
2023/12/28 06:24:43;;;;;;;6.10;3.53;;;;;;;;;;6282399;22;20431;-90
2023/12/28 06:27:09;;;;;;;4.70;3.60;;;;;;;;;;6281312;22;20416;-88
2023/12/28 06:29:35;;;;;;;3.63;2.43;;;;;;;;;;6283674;22;20434;-88
2023/12/28 06:32:01;;;;;;;10.70;4.90;;;;;;;;;;6309142;22;20376;-89
2023/12/28 06:34:29;;;;;;;8.80;4.33;;;;;;;;;;6285370;22;20384;-89
2023/12/28 06:36:55;;;;;;;10.17;6.17;;;;;;;;;;6309447;22;20786;-88
2023/12/28 06:39:21;;;;;;;11.43;6.37;;;;;;;;;;6283503;22;20463;-88
2023/12/28 06:41:50;;;;;;;12.70;6.23;;;;;;;;;;6284104;22;20436;-88
2023/12/28 06:44:16;;;;;;;8.73;4.83;;;;;;;;;;6283287;22;20918;-88
2023/12/28 06:46:42;;;;;;;8.63;5.43;;;;;;;;;;6284400;22;20380;-89
2023/12/28 06:49:08;;;;;;;3.83;2.50;;;;;;;;;;6283574;22;20379;-88
2023/12/28 06:51:34;;;;;;;7.00;2.60;;;;;;;;;;6284261;22;20381;-89
2023/12/28 06:54:00;;;;;;;3.07;2.40;;;;;;;;;;6281990;22;20443;-88
2023/12/28 06:56:26;;;;;;;4.50;3.07;;;;;;;;;;6283990;22;20759;-87
2023/12/28 06:58:52;;;;;;;2.60;1.73;;;;;;;;;;6283875;22;20399;-89
2023/12/28 07:01:18;;;;;;;2.60;1.30;;;;;;;;;;6283508;22;20744;-88
2023/12/28 07:03:44;;;;;;;2.97;2.20;;;;;;;;;;6282720;22;20456;-91
2023/12/28 07:06:10;;;;;;;1.57;1.27;;;;;;;;;;6284700;22;20387;-90
2023/12/28 07:08:36;;;;;;;2.80;2.10;;;;;;;;;;6283091;22;20405;-90
2023/12/28 07:11:02;;;;;;;5.07;3.20;;;;;;;;;;6283973;22;20385;-90
2023/12/28 07:13:28;;;;;;;3.90;2.87;;;;;;;;;;6283074;22;20408;-89
2023/12/28 07:15:54;;;;;;;3.00;2.17;;;;;;;;;;6283476;22;20380;-90
2023/12/28 07:18:20;;;;;;;3.80;2.33;;;;;;;;;;6282350;22;20864;-90
2023/12/28 07:20:46;;;;;;;3.50;2.40;;;;;;;;;;6283189;22;20386;-89
2023/12/28 07:23:13;;;;;;;4.50;2.60;;;;;;;;;;6283653;22;20388;-87
2023/12/28 07:25:39;;;;;;;6.03;3.17;;;;;;;;;;6283306;22;20487;-89
2023/12/28 07:28:05;;;;;;;2.87;2.37;;;;;;;;;;6282627;22;20434;-89
2023/12/28 07:30:31;;;;;;;2.83;2.20;;;;;;;;;;6282617;22;20380;-90
2023/12/28 07:32:57;;;;;;;7.17;2.83;;;;;;;;;;6309448;22;20372;-90
2023/12/28 07:35:23;;;;;;;10.50;2.60;;;;;;;;;;6284787;22;20441;-91
2023/12/28 07:37:49;;;;;;;7.33;4.57;;;;;;;;;;6284201;22;20440;-89
2023/12/28 07:40:15;;;;;;;8.60;4.40;;;;;;;;;;6309163;22;20859;-89
2023/12/28 07:42:41;;;;;;;9.23;3.13;;;;;;;;;;6281537;22;20388;-89
2023/12/28 07:45:07;;;;;;;6.40;4.20;;;;;;;;;;6282456;22;20523;-89
2023/12/28 07:47:33;;;;;;;4.50;2.57;;;;;;;;;;6283436;22;20463;-90
2023/12/28 07:50:00;;;;;;;6.43;3.73;;;;;;;;;;6282048;22;20743;-89
2023/12/28 07:52:26;;;;;;;11.43;4.97;;;;;;;;;;6310858;22;20383;-90
2023/12/28 07:54:52;;;;;;;3.20;2.63;;;;;;;;;;6283408;22;20384;-89
2023/12/28 07:57:18;;;;;;;4.23;2.93;;;;;;;;;;6309356;22;20360;-90
2023/12/28 07:59:44;;;;;;;7.30;3.20;;;;;;;;;;6282817;22;20466;-90
2023/12/28 08:02:10;;;;;;;6.10;3.60;;;;;;;;;;6282751;22;20891;-89
2023/12/28 08:04:36;;;;;;;2.70;2.47;;;;;;;;;;6307926;22;20487;-89
2023/12/28 08:07:04;;;;;;;3.20;2.40;;;;;;;;;;6283329;22;20380;-89
2023/12/28 08:09:30;;;;;;;4.27;2.53;;;;;;;;;;6282412;22;20380;-90
2023/12/28 08:11:56;;;;;;;4.50;2.37;;;;;;;;;;6282212;22;20373;-88
2023/12/28 08:14:22;;;;;;;4.57;2.27;;;;;;;;;;6281990;22;20445;-87
2023/12/28 08:16:48;;;;;;;6.37;3.03;;;;;;;;;;6282309;22;20907;-88
2023/12/28 08:19:13;;;;;;;5.10;3.30;;;;;;;;;;6282097;22;20416;-88
2023/12/28 08:21:40;;;;;;;3.87;2.03;;;;;;;;;;6280292;22;20375;-89
2023/12/28 08:24:06;;;;;;;4.93;3.33;;;;;;;;;;6281331;22;20420;-88
2023/12/28 08:26:32;;;;;;;5.70;2.50;;;;;;;;;;6284353;22;20401;-88
2023/12/28 08:28:59;;;;;;;7.93;3.50;;;;;;;;;;6306608;22;20365;-89
2023/12/28 08:31:25;;;;;;;5.20;3.47;;;;;;;;;;6308152;22;20364;-88
2023/12/28 08:33:51;;;;;;;6.13;3.10;;;;;;;;;;6283228;22;20464;-89
2023/12/28 08:36:20;;;;;;;10.90;3.17;;;;;;;;;;6283210;22;20446;-88
2023/12/28 08:38:46;;;;;;;9.43;2.50;;;;;;;;;;6288271;22;20387;-88
2023/12/28 08:41:18;;;;;;;8.97;3.43;;;;;;;;;;6283221;22;20376;-88
2023/12/28 08:43:44;;;;;;;7.40;3.93;;;;;;;;;;6282963;22;20373;-90
2023/12/28 08:46:10;;;;;;;13.57;5.27;;;;;;;;;;6283517;22;20384;-89
2023/12/28 08:48:36;;;;;;;4.13;2.80;;;;;;;;;;6282010;22;20388;-88
2023/12/28 08:51:03;;;;;;;3.07;2.10;;;;;;;;;;6281892;22;20477;-88
2023/12/28 08:53:29;;;;;;;15.47;6.60;;;;;;;;;;6282048;22;20419;-88
2023/12/28 08:55:55;;;;;;;7.47;4.10;;;;;;;;;;6279458;22;20381;-89
2023/12/28 08:58:21;;;;;;;8.23;3.20;;;;;;;;;;6305217;22;20437;-89
2023/12/28 09:00:48;;;;;;;7.50;3.83;;;;;;;;;;6278409;22;20399;-89
2023/12/28 09:03:14;;;;;;;9.97;3.87;;;;;;;;;;6277914;22;20927;-90
2023/12/28 09:05:40;;;;;;;6.40;3.33;;;;;;;;;;6279447;22;20451;-89
2023/12/28 09:08:07;;;;;;;8.63;4.20;;;;;;;;;;6280982;22;20709;-88
2023/12/28 09:10:33;;;;;;;4.43;2.40;;;;;;;;;;6277935;22;20414;-89
2023/12/28 09:12:59;;;;;;;3.00;2.73;;;;;;;;;;6282208;22;20391;-87
2023/12/28 09:15:25;;;;;;;7.67;2.80;;;;;;;;;;6279746;22;20693;-88
2023/12/28 09:17:51;;;;;;;2.80;1.87;;;;;;;;;;6282090;22;20376;-89
2023/12/28 09:20:18;;;;;;;6.53;2.30;;;;;;;;;;6307827;22;20438;-89
2023/12/28 09:22:45;;;;;;;2.53;1.27;;;;;;;;;;6282589;22;20793;-88
2023/12/28 09:25:11;;;;;;;3.90;2.50;;;;;;;;;;6282298;22;20412;-88
2023/12/28 09:27:37;;;;;;;6.97;2.70;;;;;;;;;;6284691;22;20418;-89
2023/12/28 09:30:04;;;;;;;5.27;1.83;;;;;;;;;;6281688;22;20380;-89
2023/12/28 09:32:30;;;;;;;2.17;1.97;;;;;;;;;;6281353;22;20391;-88
2023/12/28 09:34:56;;;;;;;2.97;1.80;;;;;;;;;;6281173;22;20404;-87
2023/12/28 09:37:22;;;;;;;2.90;2.63;;;;;;;;;;6309220;22;20372;-89
2023/12/28 09:39:48;;;;;;;3.10;1.73;;;;;;;;;;6280080;22;20380;-89
2023/12/28 09:42:17;;;;;;;1.47;1.37;;;;;;;;;;6281257;22;20379;-88
2023/12/28 09:44:44;;;;;;;4.13;1.93;;;;;;;;;;6282402;22;21343;-88
2023/12/28 09:47:12;;;;;;;1.93;1.50;;;;;;;;;;6284463;22;20899;-88
2023/12/28 09:49:38;;;;;;;2.17;1.97;;;;;;;;;;6307715;22;20364;-89
2023/12/28 09:52:04;;;;;;;2.90;1.73;;;;;;;;;;6281643;22;20415;-88
2023/12/28 09:54:30;;;;;;;5.00;1.70;;;;;;;;;;6309473;22;20369;-88
2023/12/28 09:56:56;;;;;;;2.90;1.80;;;;;;;;;;6281472;22;20401;-89
2023/12/28 09:59:22;;;;;;;1.90;1.70;;;;;;;;;;6282090;22;20381;-90
2023/12/28 10:01:48;;;;;;;2.90;1.40;;;;;;;;;;6308294;22;20814;-88
2023/12/28 10:04:14;;;;;;;2.73;2.30;;;;;;;;;;6280875;22;20415;-89
2023/12/28 10:06:40;;;;;;;1.80;1.60;;;;;;;;;;6279720;22;20381;-88
2023/12/28 10:09:07;;;;;;;5.03;1.03;;;;;;;;;;6280901;22;20437;-89
2023/12/28 10:11:33;;;;;;;2.00;1.60;;;;;;;;;;6278293;22;20377;-89
2023/12/28 10:13:59;;;;;;;2.93;1.40;;;;;;;;;;6305694;22;20359;-89
2023/12/28 10:16:25;;;;;;;1.80;1.30;;;;;;;;;;6280297;22;20770;-89
2023/12/28 10:18:51;;;;;;;1.93;1.27;;;;;;;;;;6279593;22;20407;-89
2023/12/28 10:21:17;;;;;;;3.27;1.87;;;;;;;;;;6280992;22;20426;-88
2023/12/28 10:23:43;;;;;;;1.60;1.20;;;;;;;;;;6307076;22;20371;-89
2023/12/28 10:26:10;;;;;;;2.10;1.20;;;;;;;;;;6281663;22;20556;-89
2023/12/28 10:28:39;;;;;;;1.73;1.10;;;;;;;;;;6280715;22;20383;-89
2023/12/28 10:31:05;;;;;;;1.20;0.90;;;;;;;;;;6281167;22;20377;-89
2023/12/28 10:33:35;;;;;;;3.57;2.00;;;;;;;;;;6282286;22;20377;-88
2023/12/28 10:36:01;;;;;;;3.23;1.67;;;;;;;;;;6282871;22;20456;-89
2023/12/28 10:38:29;;;;;;;2.20;1.27;;;;;;;;;;6282217;22;20383;-89
2023/12/28 10:40:55;;;;;;;3.60;1.50;;;;;;;;;;6281682;22;20410;-89
2023/12/28 10:43:21;;;;;;;5.60;1.80;;;;;;;;;;6280863;22;20384;-89
2023/12/28 10:45:47;;;;;;;4.10;1.53;;;;;;;;;;6281819;22;20416;-88
2023/12/28 10:48:13;;;;;;;1.83;1.50;;;;;;;;;;6282394;22;21170;-88
2023/12/28 10:50:40;;;;;;;3.60;2.50;;;;;;;;;;6283848;22;20380;-90
2023/12/28 10:53:30;;;;;;;2.17;1.33;;;;;;;;;;6280458;22;20755;-89
2023/12/28 10:56:11;;;;;;;2.07;1.33;;;;;;;;;;6265806;22;20380;-88
2023/12/28 10:58:48;;;;;;;1.67;1.40;;;;;;;;;;6308157;22;20384;-88
2023/12/28 11:01:16;;;;;;;2.70;1.40;;;;;;;;;;6283798;22;20402;-90
2023/12/28 11:03:42;;;;;;;1.60;1.50;;;;;;;;;;6282088;22;20497;-89
2023/12/28 11:06:08;;;;;;;3.53;1.57;;;;;;;;;;6281847;22;20925;-88
2023/12/28 11:08:34;;;;;;;1.20;1.10;;;;;;;;;;6280386;22;20460;-89
2023/12/28 11:11:01;;;;;;;3.13;1.23;;;;;;;;;;6280491;22;20372;-89
2023/12/28 11:13:28;;;;;;;4.73;1.67;;;;;;;;;;6281279;22;20399;-90
2023/12/28 11:15:54;;;;;;;1.20;1.10;;;;;;;;;;6282057;22;20388;-89
2023/12/28 11:18:21;;;;;;;1.17;1.03;;;;;;;;;;6281296;22;20463;-88
2023/12/28 11:20:47;;;;;;;1.23;0.90;;;;;;;;;;6281244;22;20388;-89
2023/12/28 11:23:13;;;;;;;2.53;1.40;;;;;;;;;;6307687;22;20387;-90
2023/12/28 11:25:39;;;;;;;1.90;1.00;;;;;;;;;;6279537;22;20432;-89
2023/12/28 11:28:12;;;;;;;1.73;1.13;;;;;;;;;;6282493;22;20415;-88
2023/12/28 11:30:38;;;;;;;1.40;0.90;;;;;;;;;;6280931;22;20376;-89
2023/12/28 11:33:07;;;;;;;1.00;1.00;;;;;;;;;;6307507;22;20369;-89
2023/12/28 11:35:37;;;;;;;1.63;1.13;;;;;;;;;;6281486;22;20381;-88
2023/12/28 11:38:08;;;;;;;2.30;0.87;;;;;;;;;;6281337;22;20368;-89
2023/12/28 11:40:40;;;;;;;1.23;1.10;;;;;;;;;;6281688;22;20378;-90
2023/12/28 11:43:09;;;;;;;2.77;1.70;;;;;;;;;;6280859;22;20383;-88
2023/12/28 11:45:35;;;;;;;1.53;1.00;;;;;;;;;;6282592;22;20427;-88
2023/12/28 11:48:02;;;;;;;1.70;1.33;;;;;;;;;;6282651;22;20764;-88
2023/12/28 11:50:28;;;;;;;2.53;0.90;;;;;;;;;;6280969;22;20376;-88
2023/12/28 11:52:55;;;;;;;1.93;1.30;;;;;;;;;;6280047;22;20434;-89
2023/12/28 11:55:23;;;;;;;2.80;1.27;;;;;;;;;;6280994;22;20445;-88
2023/12/28 11:57:49;;;;;;;3.07;1.90;;;;;;;;;;6282774;22;20444;-88
2023/12/28 12:00:16;;;;;;;2.67;1.30;;;;;;;;;;6279526;22;20710;-93
2023/12/28 12:02:47;;;;;;;1.47;1.30;;;;;;;;;;6280012;22;20388;-88
2023/12/28 12:05:15;;;;;;;2.43;1.80;;;;;;;;;;6280698;22;20770;-89
2023/12/28 12:07:41;;;;;;;3.53;2.50;;;;;;;;;;6281128;22;20384;-89
2023/12/28 12:10:07;;;;;;;3.63;1.60;;;;;;;;;;6278583;22;20886;-90
2023/12/28 12:12:33;;;;;;;1.50;1.30;;;;;;;;;;6278784;22;20377;-90
2023/12/28 12:14:59;;;;;;;1.60;1.20;;;;;;;;;;6279309;22;20388;-89
2023/12/28 12:17:25;;;;;;;1.10;1.00;;;;;;;;;;6281586;22;20416;-89
2023/12/28 12:19:55;;;;;;;1.43;1.27;;;;;;;;;;6278893;22;20411;-90
2023/12/28 12:22:21;;;;;;;3.97;2.40;;;;;;;;;;6281398;22;20388;-91
2023/12/28 12:24:48;;;;;;;1.60;1.40;;;;;;;;;;6279081;22;20907;-90
2023/12/28 12:27:14;;;;;;;2.47;1.30;;;;;;;;;;6280361;22;20424;-90
2023/12/28 12:29:40;;;;;;;1.70;1.40;;;;;;;;;;6279165;22;20381;-89
2023/12/28 12:32:07;;;;;;;1.67;1.40;;;;;;;;;;6281663;22;20410;-90
2023/12/28 12:34:33;;;;;;;2.30;1.17;;;;;;;;;;6278458;22;20388;-90
2023/12/28 12:37:00;;;;;;;6.20;1.73;;;;;;;;;;6306067;22;20382;-90
2023/12/28 12:39:26;;;;;;;1.60;1.37;;;;;;;;;;6279536;22;20441;-91
2023/12/28 12:41:52;;;;;;;1.70;1.43;;;;;;;;;;6279440;22;20377;-90
2023/12/28 12:44:20;;;;;;;2.93;1.47;;;;;;;;;;6279650;22;20423;-91
2023/12/28 12:46:46;;;;;;;3.47;1.67;;;;;;;;;;6280853;22;20889;-90
2023/12/28 12:49:12;;;;;;;3.70;1.67;;;;;;;;;;6280895;22;20701;-89
2023/12/28 12:51:40;;;;;;;1.53;1.00;;;;;;;;;;6280227;22;20855;-89
2023/12/28 12:54:06;;;;;;;1.87;1.10;;;;;;;;;;6281917;22;20388;-89
2023/12/28 12:56:33;;;;;;;1.30;1.10;;;;;;;;;;6279370;22;20380;-89
2023/12/28 12:59:02;;;;;;;1.87;1.53;;;;;;;;;;6278647;22;20376;-89
2023/12/28 13:01:28;;;;;;;2.90;1.00;;;;;;;;;;6278073;22;20459;-89
2023/12/28 13:03:57;;;;;;;2.63;2.00;;;;;;;;;;6280419;22;20387;-89
2023/12/28 13:06:39;;;;;;;2.80;2.10;;;;;;;;;;6281668;22;20427;-89
2023/12/28 13:09:10;;;;;;;2.90;1.23;;;;;;;;;;6278930;22;20388;-89
2023/12/28 13:11:37;;;;;;;1.87;1.63;;;;;;;;;;6277646;22;20406;-89
2023/12/28 13:14:04;;;;;;;1.60;1.27;;;;;;;;;;6280391;22;20396;-91
2023/12/28 13:16:30;;;;;;;1.30;1.20;;;;;;;;;;6305259;22;20387;-91
2023/12/28 13:18:58;;;;;;;5.00;2.40;;;;;;;;;;6280115;22;20729;-90
2023/12/28 13:21:24;;;;;;;2.93;1.33;;;;;;;;;;6279331;22;20864;-89
2023/12/28 13:23:50;;;;;;;2.00;1.00;;;;;;;;;;6305589;22;20372;-90
2023/12/28 13:26:16;;;;;;;2.70;1.90;;;;;;;;;;6279909;22;20740;-88
2023/12/28 13:28:42;;;;;;;4.50;1.43;;;;;;;;;;6279458;22;20381;-89
2023/12/28 13:31:09;;;;;;;0.87;0.77;;;;;;;;;;6280585;22;20895;-89
2023/12/28 13:33:35;;;;;;;3.63;1.30;;;;;;;;;;6282027;22;20372;-90
2023/12/28 13:36:02;;;;;;;3.03;1.37;;;;;;;;;;6279630;22;20438;-89
2023/12/28 13:38:28;;;;;;;2.70;1.73;;;;;;;;;;6280856;22;20384;-88
2023/12/28 13:40:55;;;;;;;2.77;2.07;;;;;;;;;;6279140;22;20463;-89
2023/12/28 13:43:21;;;;;;;2.37;1.67;;;;;;;;;;6281065;22;20389;-89
2023/12/28 13:45:47;;;;;;;2.30;1.57;;;;;;;;;;6279251;22;20419;-89
2023/12/28 13:48:13;;;;;;;1.47;1.27;;;;;;;;;;6280531;22;20932;-89
2023/12/28 13:50:39;;;;;;;1.23;1.03;;;;;;;;;;6303971;22;20360;-90
2023/12/28 13:53:07;;;;;;;1.57;1.47;;;;;;;;;;6279474;22;20378;-88
2023/12/28 13:55:35;;;;;;;1.93;1.10;;;;;;;;;;6278536;22;20380;-89
2023/12/28 13:58:03;;;;;;;2.73;1.47;;;;;;;;;;6279580;22;20731;-89
2023/12/28 14:00:28;;;;;;;2.87;1.63;;;;;;;;;;6279261;22;20376;-89
2023/12/28 14:02:55;;;;;;;4.67;1.33;;;;;;;;;;6281380;22;20392;-89
2023/12/28 14:05:21;;;;;;;3.23;1.97;;;;;;;;;;6306205;22;20411;-90
2023/12/28 14:07:47;;;;;;;5.03;3.77;;;;;;;;;;6282528;22;21034;-90
2023/12/28 14:10:13;;;;;;;3.53;1.93;;;;;;;;;;6280133;22;20375;-89
2023/12/28 14:12:39;;;;;;;2.30;1.57;;;;;;;;;;6282867;22;20368;-91
2023/12/28 14:15:05;;;;;;;1.60;1.40;;;;;;;;;;6281863;22;20373;-88
2023/12/28 14:17:33;;;;;;;2.10;1.90;;;;;;;;;;6284070;22;21115;-89
2023/12/28 14:19:59;;;;;;;3.33;1.30;;;;;;;;;;6282666;22;20381;-88
2023/12/28 14:22:27;;;;;;;2.50;1.23;;;;;;;;;;6282120;22;20775;-90
2023/12/28 14:24:53;;;;;;;1.33;1.00;;;;;;;;;;6282039;22;20419;-89
2023/12/28 14:27:19;;;;;;;2.20;1.43;;;;;;;;;;6308096;22;20369;-90
2023/12/28 14:29:45;;;;;;;1.80;1.67;;;;;;;;;;6281853;22;20391;-88
2023/12/28 14:32:12;;;;;;;3.17;1.80;;;;;;;;;;6281513;22;20367;-89
2023/12/28 14:34:38;;;;;;;2.40;1.90;;;;;;;;;;6283104;22;20373;-88
2023/12/28 14:37:04;;;;;;;1.90;1.63;;;;;;;;;;6282982;22;20400;-87
2023/12/28 14:39:30;;;;;;;2.40;1.27;;;;;;;;;;6309335;22;20825;-88